sensor_id;sensor_type;location;lat;lon;timestamp;temperature;humidity
12811;DHT22;6470;47.654;7.896;2023-07-02T00:00:59;18.00;99.90
12811;DHT22;6470;47.654;7.896;2023-07-02T00:03:25;17.60;99.90
12811;DHT22;6470;47.654;7.896;2023-07-02T00:05:51;17.10;99.90
12811;DHT22;6470;47.654;7.896;2023-07-02T00:08:21;16.80;99.90
12811;DHT22;6470;47.654;7.896;2023-07-02T00:10:47;18.10;99.90
12811;DHT22;6470;47.654;7.896;2023-07-02T00:13:13;16.90;99.90
12811;DHT22;6470;47.654;7.896;2023-07-02T00:15:39;17.70;99.90
12811;DHT22;6470;47.654;7.896;2023-07-02T00:20:31;16.30;99.90
12811;DHT22;6470;47.654;7.896;2023-07-02T00:23:00;16.70;99.90
12811;DHT22;6470;47.654;7.896;2023-07-02T00:30:18;17.10;99.90
12811;DHT22;6470;47.654;7.896;2023-07-02T00:35:10;17.50;99.90
12811;DHT22;6470;47.654;7.896;2023-07-02T00:37:36;16.60;99.90
12811;DHT22;6470;47.654;7.896;2023-07-02T00:40:01;17.40;99.90
12811;DHT22;6470;47.654;7.896;2023-07-02T00:42:27;16.80;99.90
12811;DHT22;6470;47.654;7.896;2023-07-02T00:44:55;16.80;99.90
12811;DHT22;6470;47.654;7.896;2023-07-02T00:47:22;16.40;99.90
12811;DHT22;6470;47.654;7.896;2023-07-02T00:49:49;16.60;99.90
12811;DHT22;6470;47.654;7.896;2023-07-02T00:52:15;17.40;99.90
12811;DHT22;6470;47.654;7.896;2023-07-02T00:54:41;17.20;99.90
12811;DHT22;6470;47.654;7.896;2023-07-02T00:57:07;17.50;99.90
12811;DHT22;6470;47.654;7.896;2023-07-02T00:59:33;17.40;99.90
12811;DHT22;6470;47.654;7.896;2023-07-02T01:02:04;17.50;99.90
12811;DHT22;6470;47.654;7.896;2023-07-02T01:04:31;17.30;99.90
12811;DHT22;6470;47.654;7.896;2023-07-02T01:09:23;16.80;99.90
12811;DHT22;6470;47.654;7.896;2023-07-02T01:11:54;16.60;99.90
12811;DHT22;6470;47.654;7.896;2023-07-02T01:14:51;17.30;99.90
12811;DHT22;6470;47.654;7.896;2023-07-02T01:17:19;17.20;99.90
12811;DHT22;6470;47.654;7.896;2023-07-02T01:19:50;17.10;99.90
12811;DHT22;6470;47.654;7.896;2023-07-02T01:22:25;16.70;99.90
12811;DHT22;6470;47.654;7.896;2023-07-02T01:24:51;18.10;99.90
12811;DHT22;6470;47.654;7.896;2023-07-02T01:27:18;17.10;99.90
12811;DHT22;6470;47.654;7.896;2023-07-02T01:29:44;18.10;99.90
12811;DHT22;6470;47.654;7.896;2023-07-02T01:32:15;17.10;99.90
12811;DHT22;6470;47.654;7.896;2023-07-02T01:34:41;18.10;99.90
12811;DHT22;6470;47.654;7.896;2023-07-02T01:37:09;17.60;99.90
12811;DHT22;6470;47.654;7.896;2023-07-02T01:39:35;17.30;99.90
12811;DHT22;6470;47.654;7.896;2023-07-02T01:44:37;17.60;99.90
12811;DHT22;6470;47.654;7.896;2023-07-02T01:47:04;16.80;99.90
12811;DHT22;6470;47.654;7.896;2023-07-02T01:51:57;18.00;99.90
12811;DHT22;6470;47.654;7.896;2023-07-02T01:54:25;16.80;99.90
12811;DHT22;6470;47.654;7.896;2023-07-02T01:56:52;17.60;99.90
12811;DHT22;6470;47.654;7.896;2023-07-02T01:59:18;18.00;99.90
12811;DHT22;6470;47.654;7.896;2023-07-02T02:01:44;18.10;99.90
12811;DHT22;6470;47.654;7.896;2023-07-02T02:04:11;17.90;99.90
12811;DHT22;6470;47.654;7.896;2023-07-02T02:06:37;17.50;99.90
12811;DHT22;6470;47.654;7.896;2023-07-02T02:09:04;17.10;99.90
12811;DHT22;6470;47.654;7.896;2023-07-02T02:13:57;16.90;99.90
12811;DHT22;6470;47.654;7.896;2023-07-02T02:21:19;17.00;99.90
12811;DHT22;6470;47.654;7.896;2023-07-02T02:23:45;17.50;99.90
12811;DHT22;6470;47.654;7.896;2023-07-02T02:26:11;14.70;99.90
12811;DHT22;6470;47.654;7.896;2023-07-02T02:28:37;16.80;99.90
12811;DHT22;6470;47.654;7.896;2023-07-02T02:31:03;17.10;99.90
12811;DHT22;6470;47.654;7.896;2023-07-02T02:33:29;16.90;99.90
12811;DHT22;6470;47.654;7.896;2023-07-02T02:35:55;17.50;99.90
12811;DHT22;6470;47.654;7.896;2023-07-02T02:38:21;16.90;99.90
12811;DHT22;6470;47.654;7.896;2023-07-02T02:43:13;17.10;99.90
12811;DHT22;6470;47.654;7.896;2023-07-02T02:48:05;16.80;99.90
12811;DHT22;6470;47.654;7.896;2023-07-02T02:50:30;17.50;99.90
12811;DHT22;6470;47.654;7.896;2023-07-02T02:52:56;18.00;99.90
12811;DHT22;6470;47.654;7.896;2023-07-02T02:55:22;16.80;99.90
12811;DHT22;6470;47.654;7.896;2023-07-02T02:57:47;16.40;99.90
12811;DHT22;6470;47.654;7.896;2023-07-02T03:00:13;14.30;99.90
12811;DHT22;6470;47.654;7.896;2023-07-02T03:05:06;16.80;99.90
12811;DHT22;6470;47.654;7.896;2023-07-02T03:07:32;16.90;99.90
12811;DHT22;6470;47.654;7.896;2023-07-02T03:09:58;15.90;99.90
12811;DHT22;6470;47.654;7.896;2023-07-02T03:12:27;17.10;99.90
12811;DHT22;6470;47.654;7.896;2023-07-02T03:14:53;17.30;99.90
12811;DHT22;6470;47.654;7.896;2023-07-02T03:17:23;16.20;99.90
12811;DHT22;6470;47.654;7.896;2023-07-02T03:19:50;16.40;99.90
12811;DHT22;6470;47.654;7.896;2023-07-02T03:22:16;16.90;99.90
12811;DHT22;6470;47.654;7.896;2023-07-02T03:24:41;15.90;99.90
12811;DHT22;6470;47.654;7.896;2023-07-02T03:27:07;15.80;99.90
12811;DHT22;6470;47.654;7.896;2023-07-02T03:29:36;16.20;99.90
12811;DHT22;6470;47.654;7.896;2023-07-02T03:32:04;15.70;99.90
12811;DHT22;6470;47.654;7.896;2023-07-02T03:36:56;16.00;99.90
12811;DHT22;6470;47.654;7.896;2023-07-02T03:39:21;16.50;99.90
12811;DHT22;6470;47.654;7.896;2023-07-02T03:41:47;16.80;99.90
12811;DHT22;6470;47.654;7.896;2023-07-02T03:44:13;13.70;99.90
12811;DHT22;6470;47.654;7.896;2023-07-02T03:46:39;16.30;99.90
12811;DHT22;6470;47.654;7.896;2023-07-02T03:49:04;16.40;99.90
12811;DHT22;6470;47.654;7.896;2023-07-02T03:51:31;15.80;99.90
12811;DHT22;6470;47.654;7.896;2023-07-02T03:53:58;16.20;99.90
12811;DHT22;6470;47.654;7.896;2023-07-02T03:56:24;16.60;99.90
12811;DHT22;6470;47.654;7.896;2023-07-02T03:58:50;15.90;99.90
12811;DHT22;6470;47.654;7.896;2023-07-02T04:01:15;16.10;99.90
12811;DHT22;6470;47.654;7.896;2023-07-02T04:03:51;16.50;99.90
12811;DHT22;6470;47.654;7.896;2023-07-02T04:06:17;16.10;99.90
12811;DHT22;6470;47.654;7.896;2023-07-02T04:08:43;15.70;99.90
12811;DHT22;6470;47.654;7.896;2023-07-02T04:11:10;16.30;99.90
12811;DHT22;6470;47.654;7.896;2023-07-02T04:13:36;16.40;99.90
12811;DHT22;6470;47.654;7.896;2023-07-02T04:16:02;15.90;99.90
12811;DHT22;6470;47.654;7.896;2023-07-02T04:18:27;16.00;99.90
12811;DHT22;6470;47.654;7.896;2023-07-02T04:20:54;15.60;99.90
12811;DHT22;6470;47.654;7.896;2023-07-02T04:23:21;16.40;99.90
12811;DHT22;6470;47.654;7.896;2023-07-02T04:28:13;16.50;99.90
12811;DHT22;6470;47.654;7.896;2023-07-02T04:30:39;16.50;99.90
12811;DHT22;6470;47.654;7.896;2023-07-02T04:33:05;16.20;99.90
12811;DHT22;6470;47.654;7.896;2023-07-02T04:35:33;16.40;99.90
12811;DHT22;6470;47.654;7.896;2023-07-02T04:38:02;15.70;99.90
12811;DHT22;6470;47.654;7.896;2023-07-02T04:42:53;16.30;99.90
12811;DHT22;6470;47.654;7.896;2023-07-02T04:45:29;13.30;99.90
12811;DHT22;6470;47.654;7.896;2023-07-02T04:48:02;15.80;99.90
12811;DHT22;6470;47.654;7.896;2023-07-02T04:50:28;16.50;99.90
12811;DHT22;6470;47.654;7.896;2023-07-02T04:52:53;13.50;99.90
12811;DHT22;6470;47.654;7.896;2023-07-02T04:55:21;16.90;99.90
12811;DHT22;6470;47.654;7.896;2023-07-02T05:00:13;16.50;99.90
12811;DHT22;6470;47.654;7.896;2023-07-02T05:02:39;16.30;99.90
12811;DHT22;6470;47.654;7.896;2023-07-02T05:07:32;17.60;99.90
12811;DHT22;6470;47.654;7.896;2023-07-02T05:09:58;16.60;99.90
12811;DHT22;6470;47.654;7.896;2023-07-02T05:14:50;16.70;99.90
12811;DHT22;6470;47.654;7.896;2023-07-02T05:17:16;17.30;99.90
12811;DHT22;6470;47.654;7.896;2023-07-02T05:19:41;16.80;99.90
12811;DHT22;6470;47.654;7.896;2023-07-02T05:22:08;16.90;99.90
12811;DHT22;6470;47.654;7.896;2023-07-02T05:24:34;17.00;99.90
12811;DHT22;6470;47.654;7.896;2023-07-02T05:26:59;15.80;99.90
12811;DHT22;6470;47.654;7.896;2023-07-02T05:29:25;16.60;99.90
12811;DHT22;6470;47.654;7.896;2023-07-02T05:31:51;17.30;99.90
12811;DHT22;6470;47.654;7.896;2023-07-02T05:41:35;16.80;99.90
12811;DHT22;6470;47.654;7.896;2023-07-02T05:46:26;17.30;99.90
12811;DHT22;6470;47.654;7.896;2023-07-02T05:51:22;17.60;99.90
12811;DHT22;6470;47.654;7.896;2023-07-02T05:53:47;14.60;99.90
12811;DHT22;6470;47.654;7.896;2023-07-02T05:56:13;17.20;99.90
12811;DHT22;6470;47.654;7.896;2023-07-02T05:58:39;17.80;99.90
12811;DHT22;6470;47.654;7.896;2023-07-02T06:01:05;17.50;99.90
12811;DHT22;6470;47.654;7.896;2023-07-02T06:03:31;18.50;99.90
12811;DHT22;6470;47.654;7.896;2023-07-02T06:05:57;17.90;99.90
12811;DHT22;6470;47.654;7.896;2023-07-02T06:08:23;18.10;99.90
12811;DHT22;6470;47.654;7.896;2023-07-02T06:10:49;17.70;99.90
12811;DHT22;6470;47.654;7.896;2023-07-02T06:13:16;18.10;99.90
12811;DHT22;6470;47.654;7.896;2023-07-02T06:15:42;18.20;99.90
12811;DHT22;6470;47.654;7.896;2023-07-02T06:20:34;15.00;99.90
12811;DHT22;6470;47.654;7.896;2023-07-02T06:22:59;18.50;99.90
12811;DHT22;6470;47.654;7.896;2023-07-02T06:25:26;17.70;99.90
12811;DHT22;6470;47.654;7.896;2023-07-02T06:27:51;17.30;99.90
12811;DHT22;6470;47.654;7.896;2023-07-02T06:30:20;18.30;99.90
12811;DHT22;6470;47.654;7.896;2023-07-02T06:35:11;17.90;99.90
12811;DHT22;6470;47.654;7.896;2023-07-02T06:37:37;18.10;99.90
12811;DHT22;6470;47.654;7.896;2023-07-02T06:40:04;18.10;99.90
12811;DHT22;6470;47.654;7.896;2023-07-02T06:42:30;17.80;99.90
12811;DHT22;6470;47.654;7.896;2023-07-02T06:44:56;17.80;99.90
12811;DHT22;6470;47.654;7.896;2023-07-02T06:47:21;18.10;99.90
12811;DHT22;6470;47.654;7.896;2023-07-02T06:49:47;18.00;99.90
12811;DHT22;6470;47.654;7.896;2023-07-02T06:52:13;18.40;99.90
12811;DHT22;6470;47.654;7.896;2023-07-02T06:54:39;17.40;99.90
12811;DHT22;6470;47.654;7.896;2023-07-02T06:59:31;17.50;99.90
12811;DHT22;6470;47.654;7.896;2023-07-02T07:01:56;17.60;99.90
12811;DHT22;6470;47.654;7.896;2023-07-02T07:06:48;18.00;99.90
12811;DHT22;6470;47.654;7.896;2023-07-02T07:09:14;17.90;99.90
12811;DHT22;6470;47.654;7.896;2023-07-02T07:11:40;17.90;99.90
12811;DHT22;6470;47.654;7.896;2023-07-02T07:14:05;18.00;99.90
12811;DHT22;6470;47.654;7.896;2023-07-02T07:16:31;18.00;99.90
12811;DHT22;6470;47.654;7.896;2023-07-02T07:18:57;17.00;99.90
12811;DHT22;6470;47.654;7.896;2023-07-02T07:21:22;18.30;99.90
12811;DHT22;6470;47.654;7.896;2023-07-02T07:23:48;17.90;99.90
12811;DHT22;6470;47.654;7.896;2023-07-02T07:26:14;18.20;99.90
12811;DHT22;6470;47.654;7.896;2023-07-02T07:28:39;17.00;99.90
12811;DHT22;6470;47.654;7.896;2023-07-02T07:31:05;17.80;99.90
12811;DHT22;6470;47.654;7.896;2023-07-02T07:33:31;18.10;99.90
12811;DHT22;6470;47.654;7.896;2023-07-02T07:35:57;17.60;99.90
12811;DHT22;6470;47.654;7.896;2023-07-02T07:38:22;18.40;99.90
12811;DHT22;6470;47.654;7.896;2023-07-02T07:40:48;17.70;99.90
12811;DHT22;6470;47.654;7.896;2023-07-02T07:43:14;16.70;99.90
12811;DHT22;6470;47.654;7.896;2023-07-02T07:45:40;17.30;99.90
12811;DHT22;6470;47.654;7.896;2023-07-02T07:48:06;14.30;99.90
12811;DHT22;6470;47.654;7.896;2023-07-02T07:50:32;17.90;99.90
12811;DHT22;6470;47.654;7.896;2023-07-02T07:52:59;17.50;99.90
12811;DHT22;6470;47.654;7.896;2023-07-02T07:55:27;17.60;99.90
12811;DHT22;6470;47.654;7.896;2023-07-02T08:00:19;18.00;99.90
12811;DHT22;6470;47.654;7.896;2023-07-02T08:02:46;18.10;99.90
12811;DHT22;6470;47.654;7.896;2023-07-02T08:05:12;17.80;99.90
12811;DHT22;6470;47.654;7.896;2023-07-02T08:07:39;17.10;99.90
12811;DHT22;6470;47.654;7.896;2023-07-02T08:10:06;17.40;99.90
12811;DHT22;6470;47.654;7.896;2023-07-02T08:12:33;17.30;99.90
12811;DHT22;6470;47.654;7.896;2023-07-02T08:14:59;16.90;99.90
12811;DHT22;6470;47.654;7.896;2023-07-02T08:19:51;14.60;99.90
12811;DHT22;6470;47.654;7.896;2023-07-02T08:24:44;17.70;99.90
12811;DHT22;6470;47.654;7.896;2023-07-02T08:27:09;14.90;99.90
12811;DHT22;6470;47.654;7.896;2023-07-02T08:29:39;18.50;99.90
12811;DHT22;6470;47.654;7.896;2023-07-02T08:34:30;17.60;99.90
12811;DHT22;6470;47.654;7.896;2023-07-02T08:36:56;18.90;99.90
12811;DHT22;6470;47.654;7.896;2023-07-02T08:39:22;17.90;99.90
12811;DHT22;6470;47.654;7.896;2023-07-02T08:41:48;19.00;99.90
12811;DHT22;6470;47.654;7.896;2023-07-02T08:44:16;18.20;99.90
12811;DHT22;6470;47.654;7.896;2023-07-02T08:46:43;18.70;99.90
12811;DHT22;6470;47.654;7.896;2023-07-02T08:49:09;18.50;99.90
12811;DHT22;6470;47.654;7.896;2023-07-02T08:51:35;18.70;99.90
12811;DHT22;6470;47.654;7.896;2023-07-02T08:54:01;18.90;99.90
12811;DHT22;6470;47.654;7.896;2023-07-02T08:58:54;18.90;99.90
12811;DHT22;6470;47.654;7.896;2023-07-02T09:01:19;18.80;99.90
12811;DHT22;6470;47.654;7.896;2023-07-02T09:03:45;19.00;99.90
12811;DHT22;6470;47.654;7.896;2023-07-02T09:06:12;19.10;99.90
12811;DHT22;6470;47.654;7.896;2023-07-02T09:08:38;19.30;99.90
12811;DHT22;6470;47.654;7.896;2023-07-02T09:13:42;19.60;99.90
12811;DHT22;6470;47.654;7.896;2023-07-02T09:16:19;20.10;99.90
12811;DHT22;6470;47.654;7.896;2023-07-02T09:21:26;20.00;99.90
12811;DHT22;6470;47.654;7.896;2023-07-02T09:23:52;19.60;99.90
12811;DHT22;6470;47.654;7.896;2023-07-02T09:26:22;19.80;99.90
12811;DHT22;6470;47.654;7.896;2023-07-02T09:28:48;19.70;99.90
12811;DHT22;6470;47.654;7.896;2023-07-02T09:31:14;19.70;99.90
12811;DHT22;6470;47.654;7.896;2023-07-02T09:33:40;19.60;99.90
12811;DHT22;6470;47.654;7.896;2023-07-02T09:36:05;20.30;99.90
12811;DHT22;6470;47.654;7.896;2023-07-02T09:38:31;19.70;99.90
12811;DHT22;6470;47.654;7.896;2023-07-02T09:40:57;20.40;99.90
12811;DHT22;6470;47.654;7.896;2023-07-02T09:43:24;20.50;99.90
12811;DHT22;6470;47.654;7.896;2023-07-02T09:45:52;20.60;99.90
12811;DHT22;6470;47.654;7.896;2023-07-02T09:48:21;20.30;99.90
12811;DHT22;6470;47.654;7.896;2023-07-02T09:50:49;20.90;99.90
12811;DHT22;6470;47.654;7.896;2023-07-02T09:53:15;20.80;99.90
12811;DHT22;6470;47.654;7.896;2023-07-02T09:55:44;21.10;99.90
12811;DHT22;6470;47.654;7.896;2023-07-02T09:58:10;21.40;99.90
12811;DHT22;6470;47.654;7.896;2023-07-02T10:00:38;21.80;99.90
12811;DHT22;6470;47.654;7.896;2023-07-02T10:03:03;22.40;99.90
12811;DHT22;6470;47.654;7.896;2023-07-02T10:05:31;22.50;99.90
12811;DHT22;6470;47.654;7.896;2023-07-02T10:07:58;21.80;99.90
12811;DHT22;6470;47.654;7.896;2023-07-02T10:10:28;21.80;99.90
12811;DHT22;6470;47.654;7.896;2023-07-02T10:12:54;21.70;99.90
12811;DHT22;6470;47.654;7.896;2023-07-02T10:15:27;21.30;99.90
12811;DHT22;6470;47.654;7.896;2023-07-02T10:17:58;21.30;99.90
12811;DHT22;6470;47.654;7.896;2023-07-02T10:20:36;21.60;99.90
12811;DHT22;6470;47.654;7.896;2023-07-02T10:23:03;20.60;99.90
12811;DHT22;6470;47.654;7.896;2023-07-02T10:25:31;22.40;99.90
12811;DHT22;6470;47.654;7.896;2023-07-02T10:28:00;22.20;99.90
12811;DHT22;6470;47.654;7.896;2023-07-02T10:30:33;22.80;99.90
12811;DHT22;6470;47.654;7.896;2023-07-02T10:33:19;22.60;99.90
12811;DHT22;6470;47.654;7.896;2023-07-02T10:35:48;22.80;99.90
12811;DHT22;6470;47.654;7.896;2023-07-02T10:38:22;22.90;99.90
12811;DHT22;6470;47.654;7.896;2023-07-02T10:40:54;22.80;99.90
12811;DHT22;6470;47.654;7.896;2023-07-02T10:43:28;22.40;99.90
12811;DHT22;6470;47.654;7.896;2023-07-02T10:45:54;22.70;99.90
12811;DHT22;6470;47.654;7.896;2023-07-02T10:48:20;23.00;99.90
12811;DHT22;6470;47.654;7.896;2023-07-02T10:50:46;23.50;99.90
12811;DHT22;6470;47.654;7.896;2023-07-02T10:53:16;23.30;99.90
12811;DHT22;6470;47.654;7.896;2023-07-02T10:55:42;24.40;99.90
12811;DHT22;6470;47.654;7.896;2023-07-02T10:58:09;23.60;99.90
12811;DHT22;6470;47.654;7.896;2023-07-02T11:00:49;20.30;99.90
12811;DHT22;6470;47.654;7.896;2023-07-02T11:03:20;23.40;99.90
12811;DHT22;6470;47.654;7.896;2023-07-02T11:05:46;23.90;99.90
12811;DHT22;6470;47.654;7.896;2023-07-02T11:08:12;20.10;99.90
12811;DHT22;6470;47.654;7.896;2023-07-02T11:10:38;23.20;99.90
12811;DHT22;6470;47.654;7.896;2023-07-02T11:13:14;23.20;99.90
12811;DHT22;6470;47.654;7.896;2023-07-02T11:15:40;23.80;99.90
12811;DHT22;6470;47.654;7.896;2023-07-02T11:18:16;21.90;99.90
12811;DHT22;6470;47.654;7.896;2023-07-02T11:20:45;22.80;99.90
12811;DHT22;6470;47.654;7.896;2023-07-02T11:23:24;23.00;99.90
12811;DHT22;6470;47.654;7.896;2023-07-02T11:26:00;22.70;99.90
12811;DHT22;6470;47.654;7.896;2023-07-02T11:28:27;23.30;99.90
12811;DHT22;6470;47.654;7.896;2023-07-02T11:30:53;24.00;99.90
12811;DHT22;6470;47.654;7.896;2023-07-02T11:33:20;24.90;99.90
12811;DHT22;6470;47.654;7.896;2023-07-02T11:35:46;24.40;99.90
12811;DHT22;6470;47.654;7.896;2023-07-02T11:38:12;24.60;99.90
12811;DHT22;6470;47.654;7.896;2023-07-02T11:40:38;24.30;99.90
12811;DHT22;6470;47.654;7.896;2023-07-02T11:43:04;23.60;99.90
12811;DHT22;6470;47.654;7.896;2023-07-02T11:45:31;22.90;99.90
12811;DHT22;6470;47.654;7.896;2023-07-02T11:47:57;22.80;99.90
12811;DHT22;6470;47.654;7.896;2023-07-02T11:50:23;23.20;99.90
12811;DHT22;6470;47.654;7.896;2023-07-02T11:52:48;23.90;99.90
12811;DHT22;6470;47.654;7.896;2023-07-02T11:55:14;24.60;99.90
12811;DHT22;6470;47.654;7.896;2023-07-02T11:57:40;23.80;99.90
12811;DHT22;6470;47.654;7.896;2023-07-02T12:00:06;23.40;99.90
12811;DHT22;6470;47.654;7.896;2023-07-02T12:02:32;24.30;99.90
12811;DHT22;6470;47.654;7.896;2023-07-02T12:04:57;25.10;99.90
12811;DHT22;6470;47.654;7.896;2023-07-02T12:07:23;24.80;99.90
12811;DHT22;6470;47.654;7.896;2023-07-02T12:09:50;24.20;99.90
12811;DHT22;6470;47.654;7.896;2023-07-02T12:12:15;25.30;99.90
12811;DHT22;6470;47.654;7.896;2023-07-02T12:14:41;24.30;99.90
12811;DHT22;6470;47.654;7.896;2023-07-02T12:17:09;24.10;99.90
12811;DHT22;6470;47.654;7.896;2023-07-02T12:19:38;23.80;99.90
12811;DHT22;6470;47.654;7.896;2023-07-02T12:22:05;24.00;99.90
12811;DHT22;6470;47.654;7.896;2023-07-02T12:24:30;23.60;99.90
12811;DHT22;6470;47.654;7.896;2023-07-02T12:26:56;24.40;99.90
12811;DHT22;6470;47.654;7.896;2023-07-02T12:29:21;24.90;99.90
12811;DHT22;6470;47.654;7.896;2023-07-02T12:31:47;25.00;99.90
12811;DHT22;6470;47.654;7.896;2023-07-02T12:34:13;24.70;99.90
12811;DHT22;6470;47.654;7.896;2023-07-02T12:41:31;21.50;99.90
12811;DHT22;6470;47.654;7.896;2023-07-02T12:43:57;24.90;99.90
12811;DHT22;6470;47.654;7.896;2023-07-02T12:46:22;24.80;99.90
12811;DHT22;6470;47.654;7.896;2023-07-02T12:48:48;25.20;99.90
12811;DHT22;6470;47.654;7.896;2023-07-02T12:51:14;24.50;99.90
12811;DHT22;6470;47.654;7.896;2023-07-02T12:53:40;23.90;99.90
12811;DHT22;6470;47.654;7.896;2023-07-02T12:56:06;23.70;99.90
12811;DHT22;6470;47.654;7.896;2023-07-02T13:00:57;24.00;99.90
12811;DHT22;6470;47.654;7.896;2023-07-02T13:03:23;24.30;99.90
12811;DHT22;6470;47.654;7.896;2023-07-02T13:05:50;24.20;99.90
12811;DHT22;6470;47.654;7.896;2023-07-02T13:08:16;21.50;99.90
12811;DHT22;6470;47.654;7.896;2023-07-02T13:10:42;24.20;99.90
12811;DHT22;6470;47.654;7.896;2023-07-02T13:13:08;24.10;99.90
12811;DHT22;6470;47.654;7.896;2023-07-02T13:15:33;23.90;99.90
12811;DHT22;6470;47.654;7.896;2023-07-02T13:18:01;24.10;99.90
12811;DHT22;6470;47.654;7.896;2023-07-02T13:20:26;24.00;99.90
12811;DHT22;6470;47.654;7.896;2023-07-02T13:22:52;25.10;99.90
12811;DHT22;6470;47.654;7.896;2023-07-02T13:25:18;25.20;99.90
12811;DHT22;6470;47.654;7.896;2023-07-02T13:27:44;25.30;99.90
12811;DHT22;6470;47.654;7.896;2023-07-02T13:30:09;24.10;99.90
12811;DHT22;6470;47.654;7.896;2023-07-02T13:32:35;23.80;99.90
12811;DHT22;6470;47.654;7.896;2023-07-02T13:35:01;24.00;99.90
12811;DHT22;6470;47.654;7.896;2023-07-02T13:39:53;23.70;99.90
12811;DHT22;6470;47.654;7.896;2023-07-02T13:42:18;24.60;99.90
12811;DHT22;6470;47.654;7.896;2023-07-02T13:44:45;23.30;99.90
12811;DHT22;6470;47.654;7.896;2023-07-02T13:47:10;24.70;99.90
12811;DHT22;6470;47.654;7.896;2023-07-02T13:49:36;25.10;99.90
12811;DHT22;6470;47.654;7.896;2023-07-02T13:52:02;22.10;99.90
12811;DHT22;6470;47.654;7.896;2023-07-02T13:54:28;24.80;99.90
12811;DHT22;6470;47.654;7.896;2023-07-02T13:56:56;25.10;99.90
12811;DHT22;6470;47.654;7.896;2023-07-02T13:59:22;25.30;99.90
12811;DHT22;6470;47.654;7.896;2023-07-02T14:01:48;25.80;99.90
12811;DHT22;6470;47.654;7.896;2023-07-02T14:04:15;25.30;99.90
12811;DHT22;6470;47.654;7.896;2023-07-02T14:06:41;25.80;99.90
12811;DHT22;6470;47.654;7.896;2023-07-02T14:09:07;25.60;99.90
12811;DHT22;6470;47.654;7.896;2023-07-02T14:11:34;25.80;99.90
12811;DHT22;6470;47.654;7.896;2023-07-02T14:14:00;26.30;99.90
12811;DHT22;6470;47.654;7.896;2023-07-02T14:16:26;25.30;99.90
12811;DHT22;6470;47.654;7.896;2023-07-02T14:18:52;25.80;99.90
12811;DHT22;6470;47.654;7.896;2023-07-02T14:21:18;25.80;99.90
12811;DHT22;6470;47.654;7.896;2023-07-02T14:23:44;25.70;99.90
12811;DHT22;6470;47.654;7.896;2023-07-02T14:26:10;26.10;99.90
12811;DHT22;6470;47.654;7.896;2023-07-02T14:28:36;25.20;99.90
12811;DHT22;6470;47.654;7.896;2023-07-02T14:31:03;25.10;99.90
12811;DHT22;6470;47.654;7.896;2023-07-02T14:33:31;25.60;99.90
12811;DHT22;6470;47.654;7.896;2023-07-02T14:35:58;25.20;99.90
12811;DHT22;6470;47.654;7.896;2023-07-02T14:38:24;26.10;99.90
12811;DHT22;6470;47.654;7.896;2023-07-02T14:40:51;25.30;99.90
12811;DHT22;6470;47.654;7.896;2023-07-02T14:43:17;25.70;99.90
12811;DHT22;6470;47.654;7.896;2023-07-02T14:45:50;25.20;99.90
12811;DHT22;6470;47.654;7.896;2023-07-02T14:48:17;25.30;99.90
12811;DHT22;6470;47.654;7.896;2023-07-02T14:50:51;25.00;99.90
12811;DHT22;6470;47.654;7.896;2023-07-02T14:53:17;24.90;99.90
12811;DHT22;6470;47.654;7.896;2023-07-02T14:55:44;25.30;99.90
12811;DHT22;6470;47.654;7.896;2023-07-02T14:58:10;25.30;99.90
12811;DHT22;6470;47.654;7.896;2023-07-02T15:00:50;25.60;99.90
12811;DHT22;6470;47.654;7.896;2023-07-02T15:03:17;24.60;99.90
12811;DHT22;6470;47.654;7.896;2023-07-02T15:05:45;24.80;99.90
12811;DHT22;6470;47.654;7.896;2023-07-02T15:08:10;25.40;99.90
12811;DHT22;6470;47.654;7.896;2023-07-02T15:10:38;24.50;99.90
12811;DHT22;6470;47.654;7.896;2023-07-02T15:13:06;24.80;99.90
12811;DHT22;6470;47.654;7.896;2023-07-02T15:15:32;25.40;99.90
12811;DHT22;6470;47.654;7.896;2023-07-02T15:17:58;24.60;99.90
12811;DHT22;6470;47.654;7.896;2023-07-02T15:20:24;24.90;99.90
12811;DHT22;6470;47.654;7.896;2023-07-02T15:22:50;24.70;99.90
12811;DHT22;6470;47.654;7.896;2023-07-02T15:25:16;24.40;99.90
12811;DHT22;6470;47.654;7.896;2023-07-02T15:27:42;21.30;99.90
12811;DHT22;6470;47.654;7.896;2023-07-02T15:30:08;22.10;99.90
12811;DHT22;6470;47.654;7.896;2023-07-02T15:32:34;24.40;99.90
12811;DHT22;6470;47.654;7.896;2023-07-02T15:35:00;25.40;99.90
12811;DHT22;6470;47.654;7.896;2023-07-02T15:37:25;21.90;99.90
12811;DHT22;6470;47.654;7.896;2023-07-02T15:39:51;24.70;99.90
12811;DHT22;6470;47.654;7.896;2023-07-02T15:42:17;22.70;99.90
12811;DHT22;6470;47.654;7.896;2023-07-02T15:44:44;25.70;99.90
12811;DHT22;6470;47.654;7.896;2023-07-02T15:47:10;25.50;99.90
12811;DHT22;6470;47.654;7.896;2023-07-02T15:49:37;26.40;99.90
12811;DHT22;6470;47.654;7.896;2023-07-02T15:52:03;26.10;99.90
12811;DHT22;6470;47.654;7.896;2023-07-02T15:54:28;26.10;99.90
12811;DHT22;6470;47.654;7.896;2023-07-02T15:56:54;25.30;99.90
12811;DHT22;6470;47.654;7.896;2023-07-02T15:59:20;26.30;99.90
12811;DHT22;6470;47.654;7.896;2023-07-02T16:01:47;24.50;99.90
12811;DHT22;6470;47.654;7.896;2023-07-02T16:04:13;24.80;99.90
12811;DHT22;6470;47.654;7.896;2023-07-02T16:06:39;22.50;99.90
12811;DHT22;6470;47.654;7.896;2023-07-02T16:09:06;26.00;99.90
12811;DHT22;6470;47.654;7.896;2023-07-02T16:11:34;26.30;99.90
12811;DHT22;6470;47.654;7.896;2023-07-02T16:14:06;26.60;99.90
12811;DHT22;6470;47.654;7.896;2023-07-02T16:16:33;25.60;99.90
12811;DHT22;6470;47.654;7.896;2023-07-02T16:18:59;25.40;99.90
12811;DHT22;6470;47.654;7.896;2023-07-02T16:21:25;22.20;99.90
12811;DHT22;6470;47.654;7.896;2023-07-02T16:23:51;25.70;99.90
12811;DHT22;6470;47.654;7.896;2023-07-02T16:26:16;25.40;99.90
12811;DHT22;6470;47.654;7.896;2023-07-02T16:28:42;24.90;99.90
12811;DHT22;6470;47.654;7.896;2023-07-02T16:31:09;25.20;99.90
12811;DHT22;6470;47.654;7.896;2023-07-02T16:33:35;24.80;99.90
12811;DHT22;6470;47.654;7.896;2023-07-02T16:36:07;25.40;99.90
12811;DHT22;6470;47.654;7.896;2023-07-02T16:38:33;22.30;99.90
12811;DHT22;6470;47.654;7.896;2023-07-02T16:41:01;22.30;99.90
12811;DHT22;6470;47.654;7.896;2023-07-02T16:43:26;21.80;99.90
12811;DHT22;6470;47.654;7.896;2023-07-02T16:45:56;25.50;99.90
12811;DHT22;6470;47.654;7.896;2023-07-02T16:48:23;22.20;99.90
12811;DHT22;6470;47.654;7.896;2023-07-02T16:50:55;26.20;99.90
12811;DHT22;6470;47.654;7.896;2023-07-02T16:55:46;25.60;99.90
12811;DHT22;6470;47.654;7.896;2023-07-02T16:58:12;26.40;99.90
12811;DHT22;6470;47.654;7.896;2023-07-02T17:00:38;25.30;99.90
12811;DHT22;6470;47.654;7.896;2023-07-02T17:03:03;24.10;99.90
12811;DHT22;6470;47.654;7.896;2023-07-02T17:05:31;24.20;99.90
12811;DHT22;6470;47.654;7.896;2023-07-02T17:07:57;23.90;99.90
12811;DHT22;6470;47.654;7.896;2023-07-02T17:10:23;24.30;99.90
12811;DHT22;6470;47.654;7.896;2023-07-02T17:12:49;24.40;99.90
12811;DHT22;6470;47.654;7.896;2023-07-02T17:15:14;24.70;99.90
12811;DHT22;6470;47.654;7.896;2023-07-02T17:17:41;25.70;99.90
12811;DHT22;6470;47.654;7.896;2023-07-02T17:20:07;25.50;99.90